Airfield :
LOGIN :

Register | Disclaimer

   EN    FR    IT 

 










Legend :    VFR   Marginal VFR   IFR   Intensive IFR   Very Intensive IFR
Visi :
Ceiling :
>= 8 km
>= 3000ft
5 to 8 km
1000 to 3000 ft
1500m to 5 km
500 to 1000 ft
800 to 1500m
200 to 500 ft
< 800m
< 200 ft
Symbols :   Thunderstorms  Fog  Heavy snow  Heavy precipitations  Wind > 20 kt
SIGMETs :     Misc.  Thunderstorms  Icing  Turbulence  Mountain Waves  Volcanic Ashes






- Airport Elevation : 359 ft
- IATA code : BVA


LFOB - Beauvais

CURRENT METAR :
  • 290900Z AUTO 02019KT 9999 BKN029 BKN038 BKN058 07/00 Q1029 TEMPO 4000 SHRAGS BKN030TCU BECMG 02025G35KT

EXPIRED METARs :
  • 290830Z AUTO 02018KT 9999 FEW022 BKN027 BKN058 06/00 Q1029 TEMPO 4000 SHRAGS BKN030TCU BECMG 02025G35KT
  • 290800Z AUTO 02021KT 9999 BKN029 BKN038 BKN056 05/M01 Q1029 TEMPO 4000 SHRAGS BKN030TCU BECMG 02025G35KT
  • 290730Z AUTO 01017G27KT CAVOK 05/M02 Q1029 TEMPO 4000 SHRAGS BKN030TCU
  • 290700Z AUTO 01013KT CAVOK 04/M03 Q1028 TEMPO 4000 SHRAGS BKN030TCU BECMG 02025G35KT

TAF TAF LFOB
Valid from the 29 at 06:00 until the 30 at 06:00 UTC


290500Z 2906/3006 02015G25KT 9999 SCT030 BKN040
BECMG 2907/2910 02025G35KT
PROB40
TEMPO 2907/2913 4000 SHRAGS BKN030TCU
PROB30
TEMPO 2911/2917 02025G45KT
BECMG 2922/2924 03015G25KT
ATIS : +33 3 44 11 49 28



MET'MAP, your aeronautical weather chart ! - Copyright ORBIFLY December 2007 - Disclaimer

ORBIFLY MET'MAP TEAM :

Programming & Development : Alexandra Zaïnal
Concept & original design : Baudouin d'Aumeries
Assistance for programming : Marc-Olivier Méhu
Technical & hardware support : Manuel Goepfert

Contact : metmap@orbifly.com




SOURCES & CREDITS :

   NOAA